Terminal Aerodrome Forecast
Issued by NWS

Home | Current Version | Previous Version | Graphics & Text | Print | Product List | Glossary On
Versions: 1 2 3 4 5 6 7 8 9 10 11 12 13 14 15 16
000
FTUS43 KGRB 011140
TAFRHI
TAF
KRHI 011140Z 0112/0212 29007KT 6SM -SN BR SCT006 OVC012
      TEMPO 0112/0116 5SM -SHSN BKN006
     FM011600 30007KT 6SM -SHSN SCT005 OVC011
     FM011900 30007KT P6SM OVC015=

USA.gov is the U.S. government's official web portal to all federal, state and local government web resources and services.